sensor_id;sensor_type;location;lat;lon;timestamp;pressure;altitude;pressure_sealevel;temperature;humidity
54369;BME280;40266;52.434;17.056;2023-02-28T00:00:37;102185.54;;;-3.78;82.09
54369;BME280;40266;52.434;17.056;2023-02-28T00:03:30;102183.98;;;-3.83;82.11
54369;BME280;40266;52.434;17.056;2023-02-28T00:06:17;102189.46;;;-3.86;82.29
54369;BME280;40266;52.434;17.056;2023-02-28T00:09:00;102189.11;;;-3.88;82.35
54369;BME280;40266;52.434;17.056;2023-02-28T00:11:43;102187.55;;;-3.92;82.60
54369;BME280;40266;52.434;17.056;2023-02-28T00:14:26;102185.77;;;-3.95;82.56
54369;BME280;40266;52.434;17.056;2023-02-28T00:17:08;102184.42;;;-4.00;82.81
54369;BME280;40266;52.434;17.056;2023-02-28T00:19:51;102183.34;;;-4.04;82.73
54369;BME280;40266;52.434;17.056;2023-02-28T00:22:36;102183.33;;;-4.09;82.91
54369;BME280;40266;52.434;17.056;2023-02-28T00:25:21;102184.63;;;-4.13;82.86
54369;BME280;40266;52.434;17.056;2023-02-28T00:28:05;102184.17;;;-4.17;82.85
54369;BME280;40266;52.434;17.056;2023-02-28T00:30:47;102186.35;;;-4.20;82.95
54369;BME280;40266;52.434;17.056;2023-02-28T00:33:30;102186.42;;;-4.24;83.23
54369;BME280;40266;52.434;17.056;2023-02-28T00:36:13;102190.83;;;-4.27;83.08
54369;BME280;40266;52.434;17.056;2023-02-28T00:38:56;102186.27;;;-4.31;83.17
54369;BME280;40266;52.434;17.056;2023-02-28T00:41:42;102187.27;;;-4.34;82.99
54369;BME280;40266;52.434;17.056;2023-02-28T00:44:25;102186.39;;;-4.37;83.11
54369;BME280;40266;52.434;17.056;2023-02-28T00:47:08;102188.59;;;-4.40;83.15
54369;BME280;40266;52.434;17.056;2023-02-28T00:49:51;102189.52;;;-4.41;83.23
54369;BME280;40266;52.434;17.056;2023-02-28T00:52:34;102191.74;;;-4.44;83.15
54369;BME280;40266;52.434;17.056;2023-02-28T00:55:17;102188.46;;;-4.47;83.37
54369;BME280;40266;52.434;17.056;2023-02-28T00:58:01;102190.73;;;-4.52;83.31
54369;BME280;40266;52.434;17.056;2023-02-28T01:00:44;102188.71;;;-4.56;83.27
54369;BME280;40266;52.434;17.056;2023-02-28T01:03:31;102188.84;;;-4.59;83.41
54369;BME280;40266;52.434;17.056;2023-02-28T01:06:14;102188.75;;;-4.63;83.52
54369;BME280;40266;52.434;17.056;2023-02-28T01:08:57;102194.46;;;-4.67;83.52
54369;BME280;40266;52.434;17.056;2023-02-28T01:11:41;102194.51;;;-4.71;83.80
54369;BME280;40266;52.434;17.056;2023-02-28T01:14:26;102192.48;;;-4.76;83.66
54369;BME280;40266;52.434;17.056;2023-02-28T01:17:09;102193.80;;;-4.79;83.69
54369;BME280;40266;52.434;17.056;2023-02-28T01:19:54;102187.95;;;-4.82;83.79
54369;BME280;40266;52.434;17.056;2023-02-28T01:22:40;102188.52;;;-4.84;83.71
54369;BME280;40266;52.434;17.056;2023-02-28T01:25:23;102185.13;;;-4.86;83.87
54369;BME280;40266;52.434;17.056;2023-02-28T01:28:06;102187.00;;;-4.88;84.15
54369;BME280;40266;52.434;17.056;2023-02-28T01:30:50;102187.83;;;-4.92;83.93
54369;BME280;40266;52.434;17.056;2023-02-28T01:33:34;102187.06;;;-4.95;83.96
54369;BME280;40266;52.434;17.056;2023-02-28T01:36:19;102184.59;;;-4.99;83.93
54369;BME280;40266;52.434;17.056;2023-02-28T01:39:03;102182.64;;;-5.00;84.02
54369;BME280;40266;52.434;17.056;2023-02-28T01:41:46;102186.30;;;-5.01;84.05
54369;BME280;40266;52.434;17.056;2023-02-28T01:47:41;102182.23;;;-5.05;84.22
54369;BME280;40266;52.434;17.056;2023-02-28T01:50:29;102180.02;;;-5.08;84.22
54369;BME280;40266;52.434;17.056;2023-02-28T01:53:16;102181.05;;;-5.11;84.00
54369;BME280;40266;52.434;17.056;2023-02-28T01:56:04;102182.37;;;-5.13;84.13
54369;BME280;40266;52.434;17.056;2023-02-28T01:58:53;102182.98;;;-5.16;83.99
54369;BME280;40266;52.434;17.056;2023-02-28T02:01:46;102177.64;;;-5.20;84.03
54369;BME280;40266;52.434;17.056;2023-02-28T03:27:27;102172.88;;;-6.18;85.46
54369;BME280;40266;52.434;17.056;2023-02-28T03:52:05;102177.38;;;-6.39;85.75
54369;BME280;40266;52.434;17.056;2023-02-28T04:00:11;102185.64;;;-6.42;85.47
54369;BME280;40266;52.434;17.056;2023-02-28T06:08:11;102257.02;;;-6.65;86.10
54369;BME280;40266;52.434;17.056;2023-02-28T07:19:40;102250.03;;;1.58;84.36
54369;BME280;40266;52.434;17.056;2023-02-28T07:39:03;102240.72;;;12.11;67.13
54369;BME280;40266;52.434;17.056;2023-02-28T07:42:52;102247.52;;;13.52;63.67
54369;BME280;40266;52.434;17.056;2023-02-28T07:54:27;102248.18;;;17.05;54.35
54369;BME280;40266;52.434;17.056;2023-02-28T07:57:59;102253.84;;;17.65;51.76
54369;BME280;40266;52.434;17.056;2023-02-28T08:13:44;102257.91;;;19.47;43.87
54369;BME280;40266;52.434;17.056;2023-02-28T09:20:44;102283.56;;;3.30;55.63
54369;BME280;40266;52.434;17.056;2023-02-28T09:28:16;102285.02;;;2.96;55.89
54369;BME280;40266;52.434;17.056;2023-02-28T10:36:37;102284.02;;;3.15;58.74
54369;BME280;40266;52.434;17.056;2023-02-28T11:21:20;102250.17;;;3.19;56.65
54369;BME280;40266;52.434;17.056;2023-02-28T13:27:43;102156.67;;;3.86;53.47
54369;BME280;40266;52.434;17.056;2023-02-28T13:45:22;102130.65;;;3.88;52.82
54369;BME280;40266;52.434;17.056;2023-02-28T16:51:42;102106.78;;;-0.09;61.19
54369;BME280;40266;52.434;17.056;2023-02-28T16:59:50;102106.52;;;-0.42;62.13
